Time;durP1;ratioP1;P1;durP2;ratioP2;P2;SDS_P1;SDS_P2;PMS_P1;PMS_P2;Temp;Humidity;BMP_temperature;BMP_pressure;BME280_temperature;BME280_humidity;BME280_pressure;Samples;Min_cycle;Max_cycle;Signal;HPM_P1;HPM_P2
2023/09/25 00:00:48;;;;;;;0.85;0.60;;;12.90;24.90;;;;;;5035961;28;20041;-62
2023/09/25 00:03:13;;;;;;;0.65;0.65;;;12.90;26.60;;;;;;5035659;28;20036;-61
2023/09/25 00:05:39;;;;;;;0.90;0.90;;;12.80;27.50;;;;;;5035859;28;20041;-62
2023/09/25 00:08:05;;;;;;;0.70;0.60;;;12.80;31.30;;;;;;5035718;28;20116;-62
2023/09/25 00:10:31;;;;;;;0.73;0.70;;;12.80;31.10;;;;;;5035798;28;20500;-62
2023/09/25 00:12:58;;;;;;;0.70;0.70;;;12.80;33.60;;;;;;5035682;28;20080;-62
2023/09/25 00:15:24;;;;;;;0.70;0.70;;;12.80;38.00;;;;;;5035716;28;20044;-62
2023/09/25 00:17:50;;;;;;;1.00;0.60;;;12.80;36.20;;;;;;5035150;28;20158;-62
2023/09/25 00:20:19;;;;;;;0.85;0.80;;;12.80;39.50;;;;;;5035611;28;20053;-62
2023/09/25 00:22:46;;;;;;;0.95;0.77;;;12.70;41.70;;;;;;5035607;28;20116;-62
2023/09/25 00:25:12;;;;;;;0.60;0.60;;;12.80;41.90;;;;;;5035516;28;20121;-62
2023/09/25 00:27:38;;;;;;;0.98;0.80;;;12.70;43.20;;;;;;5017494;28;20077;-62
2023/09/25 00:30:08;;;;;;;0.82;0.80;;;12.60;46.60;;;;;;5017460;28;20115;-62
2023/09/25 00:32:35;;;;;;;0.65;0.65;;;12.80;46.00;;;;;;5035403;28;20038;-62
2023/09/25 00:35:09;;;;;;;0.77;0.77;;;12.80;46.90;;;;;;5035374;28;20090;-62
2023/09/25 00:37:36;;;;;;;1.02;0.90;;;12.80;45.20;;;;;;5035350;28;20489;-62
2023/09/25 00:40:13;;;;;;;0.75;0.75;;;12.80;47.20;;;;;;5017290;28;20406;-62
2023/09/25 00:42:40;;;;;;;1.05;0.95;;;12.90;47.00;;;;;;5033794;28;20053;-64
2023/09/25 00:45:06;;;;;;;0.65;0.65;;;12.70;47.90;;;;;;5034852;28;20048;-64
2023/09/25 00:47:32;;;;;;;0.70;0.70;;;12.80;49.90;;;;;;5035112;28;20065;-64
2023/09/25 00:49:58;;;;;;;2.53;0.80;;;12.70;51.00;;;;;;5033836;28;20123;-64
2023/09/25 00:52:24;;;;;;;0.57;0.57;;;12.70;55.10;;;;;;5035133;28;20034;-63
2023/09/25 00:54:50;;;;;;;0.88;0.77;;;12.70;55.50;;;;;;5034721;28;20092;-64
2023/09/25 00:57:16;;;;;;;1.83;1.20;;;12.70;54.00;;;;;;5034778;28;20080;-64
2023/09/25 00:59:42;;;;;;;0.70;0.70;;;12.60;55.20;;;;;;5034658;28;20100;-64
2023/09/25 01:02:09;;;;;;;0.65;0.65;;;12.30;55.50;;;;;;5034788;28;20440;-64
2023/09/25 01:04:34;;;;;;;0.77;0.77;;;12.70;57.40;;;;;;5034811;28;20077;-64
2023/09/25 01:07:00;;;;;;;1.08;0.88;;;12.60;55.00;;;;;;5016678;28;20481;-64
2023/09/25 01:09:26;;;;;;;0.90;0.90;;;12.70;53.80;;;;;;5034640;28;20068;-64
2023/09/25 01:11:51;;;;;;;0.80;0.80;;;12.70;54.60;;;;;;5034673;28;20095;-64
2023/09/25 01:14:17;;;;;;;0.70;0.70;;;12.70;54.70;;;;;;5034535;28;20072;-64
2023/09/25 01:16:42;;;;;;;1.00;0.85;;;12.60;53.70;;;;;;5034216;28;20061;-65
2023/09/25 01:19:09;;;;;;;0.50;0.50;;;12.70;54.50;;;;;;5034445;28;20120;-64
2023/09/25 01:21:36;;;;;;;1.23;0.90;;;12.70;53.30;;;;;;5034216;28;20428;-64
2023/09/25 01:24:02;;;;;;;0.70;0.70;;;12.70;52.00;;;;;;5034071;28;20103;-65
2023/09/25 01:26:28;;;;;;;0.82;0.82;;;12.70;52.00;;;;;;5034336;28;20053;-64
2023/09/25 01:28:54;;;;;;;1.20;0.90;;;12.70;50.90;;;;;;5034328;28;20095;-64
2023/09/25 01:31:19;;;;;;;0.70;0.70;;;12.60;50.30;;;;;;5033968;28;20041;-64
2023/09/25 01:33:45;;;;;;;2.15;0.77;;;12.40;49.60;;;;;;5016095;28;20045;-64
2023/09/25 01:36:11;;;;;;;0.77;0.77;;;12.60;50.90;;;;;;5033753;28;20073;-64
2023/09/25 01:38:37;;;;;;;1.13;0.80;;;12.60;52.50;;;;;;5034012;28;20370;-64
2023/09/25 01:41:03;;;;;;;1.20;0.90;;;12.60;54.00;;;;;;5033958;28;20029;-64
2023/09/25 01:43:29;;;;;;;0.80;0.80;;;12.50;54.80;;;;;;5033905;28;20033;-65
2023/09/25 01:45:55;;;;;;;0.80;0.80;;;12.50;55.70;;;;;;5033927;28;20083;-64
2023/09/25 01:48:21;;;;;;;0.63;0.63;;;12.40;58.30;;;;;;5033964;28;20099;-64
2023/09/25 01:50:46;;;;;;;0.50;0.50;;;12.40;58.90;;;;;;5033531;28;20481;-64
2023/09/25 01:53:12;;;;;;;0.85;0.80;;;12.40;61.00;;;;;;5015667;28;20049;-64
2023/09/25 01:55:39;;;;;;;0.80;0.75;;;12.30;65.70;;;;;;5015742;28;20041;-64
2023/09/25 01:58:08;;;;;;;0.70;0.70;;;12.30;64.30;;;;;;5015542;28;20045;-64
2023/09/25 02:00:34;;;;;;;0.70;0.70;;;11.80;65.90;;;;;;5033610;28;20041;-65
2023/09/25 02:03:00;;;;;;;0.73;0.73;;;12.30;84.50;;;;;;5033420;28;20405;-62
2023/09/25 02:05:26;;;;;;;0.60;0.60;;;12.40;90.00;;;;;;5033564;28;20041;-62
2023/09/25 02:07:52;;;;;;;0.60;0.60;;;12.30;87.30;;;;;;5033649;28;20520;-62
2023/09/25 02:10:18;;;;;;;0.60;0.60;;;;;;;;;;5033811;28;20084;-61
2023/09/25 02:12:44;;;;;;;0.85;0.80;;;;;;;;;;5033450;28;20088;-62
2023/09/25 02:15:10;;;;;;;0.70;0.70;;;12.20;68.10;;;;;;5033410;28;20041;-62
2023/09/25 02:17:36;;;;;;;0.55;0.55;;;12.20;68.20;;;;;;5032985;28;20080;-62
2023/09/25 02:20:20;;;;;;;0.70;0.70;;;12.30;67.00;;;;;;5033114;28;20034;-62
2023/09/25 02:22:51;;;;;;;0.73;0.73;;;12.30;67.60;;;;;;5033376;28;20038;-62
2023/09/25 02:25:17;;;;;;;0.80;0.80;;;12.40;68.30;;;;;;5033309;28;20409;-62
2023/09/25 02:27:42;;;;;;;0.80;0.80;;;12.40;67.10;;;;;;5033379;28;20038;-62
2023/09/25 02:30:09;;;;;;;0.95;0.93;;;;;;;;;;5033303;28;20040;-62
2023/09/25 02:32:36;;;;;;;0.77;0.77;;;12.30;59.20;;;;;;5032982;28;20171;-62
2023/09/25 02:35:02;;;;;;;0.98;0.80;;;12.30;61.30;;;;;;5032857;28;20048;-62
2023/09/25 02:37:29;;;;;;;0.70;0.70;;;12.50;62.20;;;;;;5032807;28;20049;-61
2023/09/25 02:39:55;;;;;;;0.60;0.60;;;12.20;61.50;;;;;;4998847;28;20045;-62
2023/09/25 02:42:20;;;;;;;0.82;0.82;;;12.30;63.70;;;;;;5033088;28;20037;-62
2023/09/25 02:44:46;;;;;;;0.80;0.80;;;12.30;61.50;;;;;;5032712;28;20033;-62
2023/09/25 02:47:12;;;;;;;0.85;0.70;;;12.30;62.40;;;;;;5015066;28;20046;-62
2023/09/25 02:49:37;;;;;;;0.70;0.70;;;12.30;65.10;;;;;;5032786;28;20038;-62
2023/09/25 02:52:03;;;;;;;0.65;0.65;;;12.10;66.50;;;;;;5014996;28;20072;-62
2023/09/25 02:54:28;;;;;;;0.70;0.70;;;12.20;63.20;;;;;;5033047;28;20474;-62
2023/09/25 02:56:54;;;;;;;1.10;1.00;;;12.30;62.30;;;;;;5015125;28;20048;-62
2023/09/25 02:59:19;;;;;;;0.73;0.73;;;12.30;61.40;;;;;;5032677;28;20120;-62
2023/09/25 03:01:45;;;;;;;0.73;0.70;;;12.30;60.30;;;;;;5032959;28;20048;-62
2023/09/25 03:04:11;;;;;;;0.70;0.70;;;12.30;57.70;;;;;;5032957;28;20040;-61
2023/09/25 03:06:36;;;;;;;0.70;0.70;;;12.40;56.40;;;;;;5036282;28;20073;-61
2023/09/25 03:09:02;;;;;;;0.70;0.70;;;12.40;55.80;;;;;;5036896;28;20481;-61
2023/09/25 03:11:27;;;;;;;0.95;0.90;;;12.40;55.70;;;;;;5018740;28;20064;-62
2023/09/25 03:13:53;;;;;;;0.80;0.80;;;12.40;54.60;;;;;;5019380;28;20037;-62
2023/09/25 03:16:18;;;;;;;0.77;0.77;;;12.40;53.10;;;;;;5036569;28;20057;-62
2023/09/25 03:18:44;;;;;;;1.13;1.02;;;12.40;50.50;;;;;;5036748;28;20081;-62
2023/09/25 03:21:12;;;;;;;1.00;1.00;;;12.40;51.10;;;;;;5018724;28;20045;-62
2023/09/25 03:23:41;;;;;;;0.90;0.70;;;12.40;51.10;;;;;;5036765;28;20040;-61
2023/09/25 03:26:18;;;;;;;0.80;0.80;;;12.40;48.50;;;;;;5036598;28;20044;-61
2023/09/25 03:28:44;;;;;;;0.82;0.80;;;12.40;49.90;;;;;;5036479;28;20052;-61
2023/09/25 03:31:11;;;;;;;0.90;0.88;;;12.60;51.50;;;;;;5036466;28;20037;-61
2023/09/25 03:33:37;;;;;;;0.50;0.50;;;12.40;50.40;;;;;;5036446;28;20044;-66
2023/09/25 03:36:03;;;;;;;0.85;0.85;;;12.40;52.50;;;;;;5036567;28;20434;-66
2023/09/25 03:38:30;;;;;;;0.80;0.80;;;12.30;52.60;;;;;;5018327;28;20543;-66
2023/09/25 03:40:55;;;;;;;0.80;0.80;;;12.30;52.00;;;;;;5036367;28;20037;-66
2023/09/25 03:43:21;;;;;;;0.60;0.60;;;12.60;51.30;;;;;;5036133;28;20041;-66
2023/09/25 03:45:47;;;;;;;0.75;0.75;;;12.40;51.60;;;;;;5018456;28;20455;-66
2023/09/25 03:48:13;;;;;;;0.70;0.70;;;12.40;54.80;;;;;;5035882;28;20077;-66
2023/09/25 03:50:38;;;;;;;1.00;1.00;;;12.30;56.30;;;;;;5036204;28;20068;-66
2023/09/25 03:53:04;;;;;;;0.90;0.90;;;12.70;55.00;;;;;;5018258;28;20045;-66
2023/09/25 03:55:29;;;;;;;2.05;0.98;;;12.40;54.30;;;;;;5036068;28;20048;-66
2023/09/25 03:57:55;;;;;;;0.63;0.63;;;12.40;56.70;;;;;;5036061;28;20107;-66
2023/09/25 04:00:21;;;;;;;0.77;0.77;;;12.40;54.80;;;;;;5036025;28;20038;-66
2023/09/25 04:02:47;;;;;;;0.80;0.80;;;12.40;53.70;;;;;;5035901;28;20045;-66
2023/09/25 04:05:12;;;;;;;0.70;0.70;;;12.90;54.80;;;;;;5035553;28;20443;-67
2023/09/25 04:07:38;;;;;;;0.82;0.82;;;12.40;53.30;;;;;;5035926;28;20038;-66
2023/09/25 04:10:06;;;;;;;0.73;0.73;;;12.90;53.50;;;;;;5035462;28;20081;-66
2023/09/25 04:12:32;;;;;;;0.95;0.80;;;12.40;52.00;;;;;;5035934;28;20037;-61
2023/09/25 04:14:58;;;;;;;0.85;0.85;;;12.30;54.60;;;;;;5035579;28;20047;-61
2023/09/25 04:17:24;;;;;;;0.88;0.68;;;12.30;54.40;;;;;;5034977;28;20565;-61
2023/09/25 04:19:50;;;;;;;0.88;0.88;;;12.30;53.20;;;;;;5035593;28;20125;-61
2023/09/25 04:22:16;;;;;;;0.93;0.93;;;12.30;51.00;;;;;;5035429;28;20180;-61
2023/09/25 04:24:42;;;;;;;1.23;1.02;;;12.40;49.70;;;;;;5035244;28;20045;-61
2023/09/25 04:27:09;;;;;;;0.80;0.80;;;12.40;49.50;;;;;;5035550;28;20485;-61
2023/09/25 04:29:36;;;;;;;0.90;0.90;;;12.40;46.40;;;;;;5035465;28;20045;-61
2023/09/25 04:32:03;;;;;;;0.85;0.82;;;12.40;47.40;;;;;;5035188;28;20052;-62
2023/09/25 04:34:29;;;;;;;1.65;0.60;;;12.50;48.50;;;;;;5035455;28;20045;-61
2023/09/25 04:36:54;;;;;;;1.08;0.73;;;12.40;45.00;;;;;;5035416;28;20044;-61
2023/09/25 04:39:20;;;;;;;0.70;0.70;;;12.40;45.90;;;;;;5017440;28;20033;-61
2023/09/25 04:41:47;;;;;;;0.80;0.80;;;12.40;45.20;;;;;;5035275;28;20045;-62
2023/09/25 04:44:13;;;;;;;0.73;0.73;;;12.50;44.60;;;;;;5034957;28;20037;-62
2023/09/25 04:46:38;;;;;;;0.70;0.70;;;12.40;43.40;;;;;;5035150;28;20044;-61
2023/09/25 04:49:08;;;;;;;1.20;0.77;;;12.50;41.70;;;;;;5035169;28;20390;-62
2023/09/25 04:51:34;;;;;;;0.80;0.70;;;12.60;40.30;;;;;;5034869;28;20086;-62
2023/09/25 04:54:00;;;;;;;0.80;0.80;;;12.50;43.60;;;;;;5034728;28;20456;-61
2023/09/25 04:56:29;;;;;;;0.90;0.90;;;12.40;41.60;;;;;;5034646;28;20037;-62
2023/09/25 04:58:55;;;;;;;0.93;0.90;;;12.30;44.50;;;;;;5034834;28;20125;-62
2023/09/25 05:01:21;;;;;;;0.73;0.73;;;12.40;43.70;;;;;;5034876;28;20132;-61
2023/09/25 05:03:46;;;;;;;0.80;0.80;;;12.80;46.30;;;;;;5034914;28;20041;-61
2023/09/25 05:06:12;;;;;;;0.63;0.63;;;12.30;44.30;;;;;;5016804;28;20037;-61
2023/09/25 05:08:38;;;;;;;0.80;0.80;;;12.30;44.40;;;;;;5034775;28;20213;-61
2023/09/25 05:11:07;;;;;;;0.70;0.70;;;12.30;44.10;;;;;;5034743;28;20037;-61
2023/09/25 05:13:33;;;;;;;0.70;0.70;;;12.30;45.40;;;;;;5034728;28;20041;-62
2023/09/25 05:16:00;;;;;;;0.80;0.80;;;12.30;46.80;;;;;;5034367;28;20033;-62
2023/09/25 05:18:26;;;;;;;0.70;0.70;;;12.10;46.30;;;;;;5034551;28;20409;-62
2023/09/25 05:20:51;;;;;;;0.73;0.73;;;12.50;46.60;;;;;;5034504;28;20112;-61
2023/09/25 05:23:20;;;;;;;0.77;0.77;;;12.30;46.40;;;;;;5034513;28;20071;-62
2023/09/25 05:25:46;;;;;;;0.85;0.85;;;12.20;47.30;;;;;;5034089;28;20073;-62
2023/09/25 05:28:11;;;;;;;0.73;0.73;;;12.20;45.00;;;;;;5033722;28;20088;-62
2023/09/25 05:30:37;;;;;;;0.70;0.70;;;12.20;45.80;;;;;;5034245;28;20044;-62
2023/09/25 05:33:03;;;;;;;0.88;0.88;;;12.20;46.40;;;;;;5034320;28;20041;-61
2023/09/25 05:35:30;;;;;;;1.23;1.05;;;12.20;45.00;;;;;;5034268;28;20469;-62
2023/09/25 05:37:55;;;;;;;1.17;1.08;;;12.20;45.90;;;;;;5034125;28;20052;-61
2023/09/25 05:40:21;;;;;;;1.20;1.00;;;12.30;43.00;;;;;;5034179;28;20465;-64
2023/09/25 05:42:48;;;;;;;1.45;1.08;;;12.20;38.80;;;;;;5033988;28;20496;-61
2023/09/25 05:45:15;;;;;;;0.77;0.77;;;12.20;39.70;;;;;;5033926;28;20041;-60
2023/09/25 05:47:41;;;;;;;2.55;1.00;;;12.20;42.20;;;;;;5033693;28;20051;-61
2023/09/25 05:50:07;;;;;;;1.58;0.73;;;12.10;43.60;;;;;;5033776;28;20038;-60
2023/09/25 05:52:37;;;;;;;0.68;0.68;;;12.10;40.60;;;;;;5033756;28;20420;-61
2023/09/25 05:55:05;;;;;;;0.98;0.98;;;12.20;41.90;;;;;;5033742;28;20041;-60
2023/09/25 05:57:34;;;;;;;1.05;0.90;;;12.20;41.00;;;;;;5033670;28;20405;-60
2023/09/25 05:59:59;;;;;;;0.70;0.70;;;12.10;41.40;;;;;;5033704;28;20404;-61
2023/09/25 06:02:27;;;;;;;0.70;0.70;;;12.10;41.00;;;;;;5033446;28;20124;-66
2023/09/25 06:04:53;;;;;;;1.10;1.00;;;12.20;43.20;;;;;;5016086;28;20037;-65
2023/09/25 06:07:19;;;;;;;1.20;1.10;;;12.60;43.50;;;;;;5015589;28;20056;-64
2023/09/25 06:09:45;;;;;;;1.20;0.98;;;12.20;43.10;;;;;;5033229;28;20128;-66
2023/09/25 06:12:11;;;;;;;1.08;1.08;;;12.20;42.90;;;;;;5033543;28;20037;-65
2023/09/25 06:14:37;;;;;;;1.58;1.20;;;12.20;43.80;;;;;;5033489;28;20508;-64
2023/09/25 06:17:02;;;;;;;0.70;0.70;;;12.20;43.30;;;;;;5032886;28;20050;-64
2023/09/25 06:19:28;;;;;;;0.80;0.80;;;12.20;44.20;;;;;;5033413;28;20049;-66
2023/09/25 06:21:54;;;;;;;0.93;0.90;;;12.30;44.40;;;;;;5033455;28;20033;-66
2023/09/25 06:24:21;;;;;;;0.75;0.75;;;12.20;41.90;;;;;;5033339;28;20090;-65
2023/09/25 06:26:48;;;;;;;0.70;0.70;;;12.30;41.70;;;;;;5033111;28;20839;-65
2023/09/25 06:29:14;;;;;;;0.80;0.80;;;12.30;41.70;;;;;;5033236;28;20050;-65
2023/09/25 06:31:40;;;;;;;1.83;0.90;;;12.30;42.30;;;;;;5033182;28;20041;-65
2023/09/25 06:34:09;;;;;;;1.10;1.00;;;12.40;41.80;;;;;;5032759;28;20143;-65
2023/09/25 06:36:36;;;;;;;1.65;0.90;;;12.40;39.90;;;;;;5033090;28;20038;-64
2023/09/25 06:39:06;;;;;;;1.50;1.00;;;12.40;37.50;;;;;;5033091;28;20413;-65
2023/09/25 06:41:33;;;;;;;0.68;0.68;;;12.50;37.50;;;;;;5032916;28;20041;-64
2023/09/25 06:43:59;;;;;;;1.08;0.90;;;12.60;33.20;;;;;;5033168;28;20112;-65
2023/09/25 06:46:25;;;;;;;2.72;0.95;;;12.60;30.70;;;;;;5033091;28;20112;-66
2023/09/25 06:48:51;;;;;;;0.90;0.90;;;12.70;24.60;;;;;;5033095;28;20136;-65
2023/09/25 06:51:17;;;;;;;1.50;1.00;;;12.80;20.20;;;;;;5033026;28;20457;-65
2023/09/25 06:53:43;;;;;;;0.70;0.70;;;12.90;14.80;;;;;;5033032;28;20080;-66
2023/09/25 06:56:10;;;;;;;1.88;1.05;;;12.90;12.50;;;;;;5032935;28;20037;-66
2023/09/25 06:58:36;;;;;;;0.88;0.85;;;13.00;11.60;;;;;;5032890;28;20048;-65
2023/09/25 07:01:02;;;;;;;1.00;0.90;;;13.10;1.00;;;;;;5032987;28;20465;-65
2023/09/25 07:03:28;;;;;;;0.93;0.93;;;13.20;1.00;;;;;;5032767;28;20048;-63
2023/09/25 07:05:53;;;;;;;0.70;0.70;;;13.30;1.00;;;;;;5032892;28;20037;-62
2023/09/25 07:08:19;;;;;;;1.05;0.98;;;13.30;1.00;;;;;;5014964;28;20508;-62
2023/09/25 07:10:51;;;;;;;0.80;0.80;;;13.40;1.00;;;;;;5014974;28;20081;-62
2023/09/25 07:13:19;;;;;;;0.82;0.70;;;13.50;1.00;;;;;;5032973;28;20041;-62
2023/09/25 07:15:46;;;;;;;0.80;0.80;;;13.50;1.00;;;;;;5032287;28;20056;-62
2023/09/25 07:18:11;;;;;;;1.17;0.75;;;13.50;1.00;;;;;;5032695;28;20041;-61
2023/09/25 07:20:37;;;;;;;0.80;0.80;;;13.60;1.00;;;;;;5032703;28;20393;-61
2023/09/25 07:23:03;;;;;;;0.68;0.68;;;13.70;1.00;;;;;;5032878;28;20556;-67
2023/09/25 07:25:29;;;;;;;0.60;0.60;;;13.70;1.00;;;;;;5032697;28;20133;-66
2023/09/25 07:27:55;;;;;;;0.68;0.68;;;13.80;1.00;;;;;;5032422;28;20110;-66
2023/09/25 07:30:21;;;;;;;1.08;0.95;;;13.80;1.00;;;;;;5032471;28;20084;-66
2023/09/25 07:32:48;;;;;;;1.10;0.90;;;13.80;1.00;;;;;;5032688;28;20450;-66
2023/09/25 07:35:15;;;;;;;0.82;0.70;;;13.80;1.00;;;;;;5032364;28;20072;-66
2023/09/25 07:37:41;;;;;;;0.75;0.75;;;14.70;1.00;;;;;;5032606;28;20445;-66
2023/09/25 07:40:11;;;;;;;0.60;0.60;;;13.90;1.00;;;;;;5032612;28;20076;-66
2023/09/25 07:42:38;;;;;;;1.05;1.02;;;14.00;1.00;;;;;;5032234;28;20046;-65
2023/09/25 07:45:06;;;;;;;0.70;0.70;;;14.00;1.00;;;;;;5032277;28;20037;-65
2023/09/25 07:47:32;;;;;;;0.90;0.80;;;14.10;1.00;;;;;;5032556;28;20034;-67
2023/09/25 07:49:58;;;;;;;0.65;0.65;;;14.20;1.00;;;;;;5014522;28;20385;-66
2023/09/25 07:52:24;;;;;;;0.45;0.45;;;14.20;1.00;;;;;;5035465;28;20440;-68
2023/09/25 07:54:51;;;;;;;1.15;0.90;;;14.30;1.00;;;;;;5036150;28;20045;-64
2023/09/25 07:57:19;;;;;;;0.70;0.70;;;14.30;1.00;;;;;;5035941;28;20087;-65
2023/09/25 07:59:46;;;;;;;0.70;0.70;;;14.50;1.00;;;;;;5035627;28;20037;-64
2023/09/25 08:02:16;;;;;;;0.60;0.60;;;14.40;99.90;;;;;;5035906;28;20501;-65
2023/09/25 08:04:42;;;;;;;0.65;0.65;;;14.50;1.00;;;;;;5017957;28;20038;-64
2023/09/25 08:07:08;;;;;;;0.68;0.68;;;14.50;99.90;;;;;;5017850;28;20110;-65
2023/09/25 08:09:35;;;;;;;0.88;0.88;;;14.60;99.90;;;;;;5035891;28;20116;-64
2023/09/25 08:12:01;;;;;;;0.85;0.60;;;14.60;99.90;;;;;;5017774;28;20088;-64
2023/09/25 08:14:26;;;;;;;0.73;0.73;;;14.70;99.90;;;;;;5035772;28;20065;-65
2023/09/25 08:16:52;;;;;;;0.60;0.60;;;14.70;99.90;;;;;;5035466;28;20069;-64
2023/09/25 08:19:18;;;;;;;0.93;0.70;;;15.10;99.90;;;;;;5035662;28;20494;-64
2023/09/25 08:21:44;;;;;;;0.47;0.47;;;14.90;99.90;;;;;;5017694;28;20405;-65
2023/09/25 08:24:10;;;;;;;0.60;0.60;;;15.00;99.90;;;;;;5035689;28;20116;-62
2023/09/25 08:26:36;;;;;;;0.80;0.80;;;15.80;99.90;;;;;;5035587;28;20069;-61
2023/09/25 08:29:05;;;;;;;0.80;0.80;;;15.60;99.90;;;;;;5035509;28;20029;-62
2023/09/25 08:31:31;;;;;;;1.13;0.90;;;;;;;;;;5017634;28;20049;-62
2023/09/25 08:33:57;;;;;;;0.95;0.90;;;15.40;99.90;;;;;;5035368;28;20083;-62
2023/09/25 08:36:23;;;;;;;0.60;0.60;;;15.50;99.90;;;;;;5035603;28;20041;-67
2023/09/25 08:38:49;;;;;;;0.82;0.70;;;15.50;99.90;;;;;;5035069;28;20513;-62
2023/09/25 08:41:17;;;;;;;0.57;0.50;;;15.50;1.00;;;;;;5035263;28;20045;-62
2023/09/25 08:43:44;;;;;;;0.73;0.50;;;15.50;99.90;;;;;;5035243;28;20040;-62
2023/09/25 08:46:11;;;;;;;0.45;0.45;;;15.50;1.00;;;;;;5035144;28;20105;-62
2023/09/25 08:48:37;;;;;;;0.57;0.57;;;15.60;99.90;;;;;;5034799;28;20045;-61
2023/09/25 08:51:04;;;;;;;0.57;0.57;;;15.80;99.90;;;;;;5035025;28;20045;-61
2023/09/25 08:53:29;;;;;;;0.57;0.57;;;15.70;99.90;;;;;;5035033;28;20402;-61
2023/09/25 08:55:56;;;;;;;0.65;0.60;;;15.80;1.00;;;;;;5017022;28;20079;-61
2023/09/25 08:58:24;;;;;;;0.68;0.50;;;15.90;99.90;;;;;;5034530;28;20045;-61
2023/09/25 09:00:50;;;;;;;1.33;0.65;;;16.00;3.70;;;;;;5034926;28;20042;-61
2023/09/25 09:03:16;;;;;;;2.20;1.02;;;16.10;20.60;;;;;;5033916;28;20095;-64
2023/09/25 09:05:42;;;;;;;0.55;0.55;;;16.10;99.90;;;;;;5034828;28;20799;-63
2023/09/25 09:08:09;;;;;;;0.40;0.40;;;16.10;99.90;;;;;;5034725;28;20119;-64
2023/09/25 09:10:39;;;;;;;0.63;0.63;;;16.20;99.90;;;;;;5034797;28;20084;-66
2023/09/25 09:13:09;;;;;;;0.50;0.50;;;16.30;1.00;;;;;;5016622;28;20040;-65
2023/09/25 09:15:36;;;;;;;1.08;0.80;;;16.40;99.90;;;;;;5034379;28;20073;-65
2023/09/25 09:18:25;;;;;;;0.85;0.65;;;16.30;99.90;;;;;;5034026;28;20046;-65
2023/09/25 09:20:51;;;;;;;0.52;0.52;;;16.40;99.90;;;;;;5034561;28;20113;-65
2023/09/25 09:23:17;;;;;;;1.38;0.60;;;16.40;99.90;;;;;;5016457;28;20413;-65
2023/09/25 09:25:51;;;;;;;0.93;0.50;;;16.40;99.90;;;;;;5034087;28;20049;-65
2023/09/25 09:28:16;;;;;;;0.93;0.75;;;17.00;99.90;;;;;;5034033;28;20051;-65
2023/09/25 09:30:42;;;;;;;0.60;0.60;;;16.40;99.90;;;;;;5034335;28;20041;-68
2023/09/25 09:33:11;;;;;;;0.50;0.50;;;16.40;97.20;;;;;;5034345;28;20091;-67
2023/09/25 09:35:37;;;;;;;0.43;0.43;;;16.50;99.90;;;;;;5034215;28;20080;-67
2023/09/25 09:38:05;;;;;;;0.52;0.52;;;16.40;99.90;;;;;;5016101;28;20042;-67
2023/09/25 09:40:31;;;;;;;0.57;0.57;;;16.50;99.90;;;;;;5034430;28;20025;-70
2023/09/25 09:42:57;;;;;;;0.63;0.63;;;16.40;99.90;;;;;;5034042;28;20036;-68
2023/09/25 09:45:23;;;;;;;0.40;0.40;;;16.80;99.90;;;;;;5033765;28;20049;-68
2023/09/25 09:47:50;;;;;;;2.58;0.63;;;16.50;99.90;;;;;;5033702;28;20092;-67
2023/09/25 09:50:22;;;;;;;0.65;0.65;;;16.70;96.90;;;;;;5033930;28;20049;-68
2023/09/25 09:52:49;;;;;;;0.65;0.65;;;16.80;29.20;;;;;;5033844;28;20103;-68
2023/09/25 09:55:15;;;;;;;1.65;0.70;;;16.70;66.20;;;;;;5015756;28;20092;-67
2023/09/25 09:57:42;;;;;;;0.50;0.50;;;17.00;1.00;;;;;;5033664;28;20050;-67
2023/09/25 10:00:08;;;;;;;0.70;0.70;;;17.10;1.00;;;;;;5033671;28;20424;-68
2023/09/25 10:02:35;;;;;;;0.93;0.60;;;17.20;99.90;;;;;;5033664;28;20064;-71
2023/09/25 10:05:02;;;;;;;0.40;0.40;;;17.30;99.90;;;;;;5033249;28;20037;-66
2023/09/25 10:07:28;;;;;;;0.90;0.68;;;17.40;99.90;;;;;;5033515;28;20167;-67
2023/09/25 10:10:03;;;;;;;0.63;0.43;;;17.50;99.90;;;;;;5033469;28;20084;-66
2023/09/25 10:12:48;;;;;;;0.47;0.45;;;17.60;74.50;;;;;;5033614;28;20049;-60
2023/09/25 10:15:23;;;;;;;0.43;0.40;;;17.60;99.90;;;;;;5015199;28;20056;-61
2023/09/25 10:17:49;;;;;;;0.45;0.40;;;17.70;99.90;;;;;;5032983;28;20049;-60
2023/09/25 10:20:40;;;;;;;0.47;0.47;;;17.80;99.90;;;;;;5015366;28;20045;-61
2023/09/25 10:23:06;;;;;;;0.40;0.40;;;17.90;99.90;;;;;;5033340;28;20417;-61
2023/09/25 10:26:03;;;;;;;0.55;0.50;;;17.90;99.90;;;;;;5033271;28;20037;-61
2023/09/25 10:28:31;;;;;;;0.85;0.60;;;18.00;35.90;;;;;;5033250;28;20052;-61
2023/09/25 10:30:58;;;;;;;0.70;0.60;;;18.20;83.80;;;;;;5033199;28;20561;-62
2023/09/25 10:33:27;;;;;;;0.50;0.50;;;18.10;99.90;;;;;;5033171;28;20045;-61
2023/09/25 10:36:04;;;;;;;0.85;0.65;;;18.10;20.20;;;;;;5033134;28;20391;-61
2023/09/25 10:38:34;;;;;;;0.60;0.60;;;18.10;1.00;;;;;;5032759;28;20056;-62
2023/09/25 10:41:07;;;;;;;0.55;0.55;;;18.20;1.00;;;;;;5015062;28;20123;-61
2023/09/25 10:43:34;;;;;;;0.50;0.47;;;18.40;99.90;;;;;;5033191;28;20405;-68
2023/09/25 10:46:00;;;;;;;1.00;0.60;;;18.10;99.90;;;;;;5032982;28;20033;-67
2023/09/25 10:48:27;;;;;;;0.47;0.47;;;18.20;99.90;;;;;;5033039;28;20120;-66
2023/09/25 10:50:54;;;;;;;0.68;0.68;;;18.20;1.00;;;;;;5015008;28;20049;-67
2023/09/25 10:53:21;;;;;;;0.43;0.43;;;18.30;1.00;;;;;;5032884;28;20499;-66
2023/09/25 10:55:47;;;;;;;0.88;0.68;;;18.30;1.00;;;;;;5032855;28;20432;-68
2023/09/25 10:58:14;;;;;;;0.60;0.50;;;18.40;1.00;;;;;;5032801;28;20045;-67
2023/09/25 11:00:43;;;;;;;0.85;0.60;;;18.20;1.00;;;;;;5032848;28;20060;-67
2023/09/25 11:03:09;;;;;;;0.50;0.50;;;18.50;1.00;;;;;;5032856;28;20120;-68
2023/09/25 11:05:38;;;;;;;0.70;0.70;;;18.60;1.00;;;;;;5032899;28;20040;-67
2023/09/25 11:08:05;;;;;;;0.57;0.55;;;18.70;1.00;;;;;;5032475;28;20072;-67
2023/09/25 11:10:37;;;;;;;1.20;0.85;;;18.70;99.90;;;;;;5032784;28;20524;-68
2023/09/25 11:13:03;;;;;;;2.17;0.80;;;19.00;99.90;;;;;;5032775;28;20041;-67
2023/09/25 11:15:39;;;;;;;0.50;0.50;;;18.70;99.90;;;;;;5015024;28;20050;-67
2023/09/25 11:18:09;;;;;;;0.50;0.50;;;18.70;99.90;;;;;;5032178;28;20107;-67
2023/09/25 11:20:37;;;;;;;1.10;0.70;;;18.70;99.90;;;;;;5032705;28;20038;-68
2023/09/25 11:23:08;;;;;;;0.70;0.70;;;18.70;99.90;;;;;;5032844;28;20112;-62
2023/09/25 11:25:44;;;;;;;0.60;0.60;;;18.80;99.90;;;;;;5014825;28;20440;-62
2023/09/25 11:28:18;;;;;;;0.35;0.35;;;18.80;99.90;;;;;;5036580;28;20041;-61
2023/09/25 11:30:48;;;;;;;1.02;0.73;;;18.80;99.90;;;;;;5018590;28;20068;-61
2023/09/25 11:33:21;;;;;;;0.80;0.63;;;18.90;99.90;;;;;;5036521;28;20053;-62
2023/09/25 11:35:49;;;;;;;2.58;0.60;;;19.00;99.90;;;;;;5036225;28;20081;-62
2023/09/25 11:38:18;;;;;;;0.60;0.60;;;19.00;99.90;;;;;;5036101;28;20048;-61
2023/09/25 11:40:45;;;;;;;0.50;0.50;;;19.30;99.90;;;;;;5036443;28;20040;-62
2023/09/25 11:43:12;;;;;;;0.50;0.50;;;19.00;99.90;;;;;;5036370;28;20077;-61
2023/09/25 11:45:39;;;;;;;0.60;0.50;;;19.00;99.90;;;;;;5036037;28;20040;-62
2023/09/25 11:48:05;;;;;;;0.55;0.40;;;19.00;99.90;;;;;;5036236;28;20041;-62
2023/09/25 11:50:31;;;;;;;0.82;0.60;;;19.00;99.90;;;;;;5036376;28;20076;-62
2023/09/25 11:52:57;;;;;;;0.93;0.80;;;19.10;99.90;;;;;;5036194;28;20073;-64
2023/09/25 11:55:23;;;;;;;0.88;0.70;;;19.10;99.90;;;;;;5036142;28;20037;-65
2023/09/25 11:57:49;;;;;;;1.20;0.60;;;19.20;99.90;;;;;;5017926;28;20053;-64
2023/09/25 12:00:18;;;;;;;0.60;0.60;;;19.30;99.90;;;;;;5035935;28;20033;-65
2023/09/25 12:02:46;;;;;;;0.50;0.50;;;19.30;99.90;;;;;;5035892;28;20116;-64
2023/09/25 12:05:16;;;;;;;1.00;0.73;;;19.10;99.90;;;;;;5035839;28;20044;-65
2023/09/25 12:07:42;;;;;;;0.70;0.70;;;19.50;99.90;;;;;;5035901;28;20446;-65
2023/09/25 12:10:10;;;;;;;0.68;0.68;;;19.50;99.90;;;;;;5035729;28;20427;-65
2023/09/25 12:12:36;;;;;;;0.77;0.55;;;19.60;99.90;;;;;;5035484;28;20041;-65
2023/09/25 12:15:08;;;;;;;0.70;0.70;;;19.70;99.90;;;;;;5035715;28;20389;-65
2023/09/25 12:17:35;;;;;;;0.70;0.70;;;;;;;;;;5035209;28;20050;-65
2023/09/25 12:20:06;;;;;;;0.77;0.60;;;20.00;99.90;;;;;;5035553;28;20040;-65
2023/09/25 12:22:32;;;;;;;;;;;20.10;99.90;;;;;;5036021;28;20065;-64
2023/09/25 12:24:58;;;;;;;0.60;0.60;;;20.10;99.90;;;;;;5035460;28;19917;-65
2023/09/25 12:27:23;;;;;;;0.80;0.80;;;20.10;99.90;;;;;;5035529;28;20453;-65
2023/09/25 12:29:49;;;;;;;1.27;1.02;;;20.10;99.90;;;;;;5035401;28;20049;-65
2023/09/25 12:32:14;;;;;;;0.65;0.50;;;20.20;99.90;;;;;;5035100;28;20444;-65
2023/09/25 12:34:40;;;;;;;0.57;0.57;;;20.00;99.90;;;;;;5035510;28;20068;-65
2023/09/25 12:37:06;;;;;;;0.60;0.60;;;20.20;99.90;;;;;;5035107;28;20103;-65
2023/09/25 12:39:33;;;;;;;0.77;0.70;;;20.10;99.90;;;;;;5035280;28;20036;-65
2023/09/25 12:41:58;;;;;;;0.88;0.82;;;20.10;99.90;;;;;;5035420;28;20041;-66
2023/09/25 12:44:24;;;;;;;1.30;0.85;;;20.10;93.20;;;;;;5035175;28;20409;-65
2023/09/25 12:46:51;;;;;;;0.80;0.80;;;19.80;75.70;;;;;;5017462;28;20057;-65
2023/09/25 12:49:19;;;;;;;1.08;0.80;;;20.10;96.20;;;;;;5034672;28;20045;-65